createdAt,value
2017-09-18T00:00:50.470Z,2.89
2017-09-18T00:01:51.083Z,2.95
2017-09-18T00:02:51.686Z,2.95
2017-09-18T00:03:52.294Z,2.92
2017-09-18T00:04:53.000Z,2.89
2017-09-18T00:05:53.639Z,2.95
2017-09-18T00:06:54.247Z,2.95
2017-09-18T00:07:54.857Z,2.90
2017-09-18T00:08:55.463Z,2.95
2017-09-18T00:09:56.171Z,2.85
2017-09-18T00:10:56.777Z,2.85
2017-09-18T00:11:57.389Z,2.86
2017-09-18T00:12:57.999Z,2.79
2017-09-18T00:13:58.606Z,2.79
2017-09-18T00:14:59.313Z,2.77
2017-09-18T00:15:59.920Z,2.77
2017-09-18T00:17:00.528Z,2.77
2017-09-18T00:18:01.138Z,2.71
2017-09-18T00:19:01.778Z,2.71
2017-09-18T00:20:02.490Z,2.79
2017-09-18T00:21:03.096Z,2.82
2017-09-18T00:22:03.704Z,2.74
2017-09-18T00:23:04.315Z,2.74
2017-09-18T00:24:04.926Z,2.80
2017-09-18T00:25:05.632Z,2.82
2017-09-18T00:26:06.238Z,2.82
2017-09-18T00:27:06.845Z,2.71
2017-09-18T00:28:07.451Z,2.71
2017-09-18T00:29:08.057Z,2.75
2017-09-18T00:30:08.796Z,2.80
2017-09-18T00:31:09.410Z,2.82
2017-09-18T00:32:10.055Z,2.68
2017-09-18T00:33:10.659Z,2.68
2017-09-18T00:34:11.266Z,2.68
2017-09-18T00:35:11.974Z,2.69
2017-09-18T00:36:12.588Z,2.68
2017-09-18T00:37:13.192Z,2.69
2017-09-18T00:38:13.804Z,2.62
2017-09-18T00:39:14.410Z,2.74
2017-09-18T00:40:15.115Z,2.77
2017-09-18T00:41:15.725Z,2.62
2017-09-18T00:42:16.337Z,2.65
2017-09-18T00:43:16.943Z,2.60
2017-09-18T00:44:17.555Z,2.64
2017-09-18T00:45:18.258Z,2.60
2017-09-18T00:46:18.867Z,2.64
2017-09-18T00:47:19.473Z,2.53
2017-09-18T00:48:20.090Z,2.56
2017-09-18T00:49:20.689Z,2.53
2017-09-18T00:50:21.403Z,2.61
2017-09-18T00:51:22.009Z,2.49
2017-09-18T00:52:22.619Z,2.54
2017-09-18T00:53:23.223Z,2.51
2017-09-18T00:54:23.861Z,2.53
2017-09-18T00:55:24.606Z,2.50
2017-09-18T00:56:25.211Z,2.38
2017-09-18T00:57:25.818Z,2.43
2017-09-18T00:58:26.423Z,2.36
2017-09-18T00:59:27.033Z,2.36
2017-09-18T01:00:27.740Z,2.31
2017-09-18T01:01:28.347Z,2.20
2017-09-18T01:02:28.955Z,2.20
2017-09-18T01:03:29.560Z,2.20
2017-09-18T01:04:30.170Z,2.13
2017-09-18T01:05:30.877Z,2.08
2017-09-18T01:06:31.516Z,2.17
2017-09-18T01:07:32.129Z,2.17
2017-09-18T01:08:32.766Z,2.22
2017-09-18T01:09:33.379Z,2.18
2017-09-18T01:10:34.081Z,2.20
2017-09-18T01:11:34.721Z,2.15
2017-09-18T01:12:35.327Z,2.25
2017-09-18T01:13:35.941Z,2.17
2017-09-18T01:14:36.551Z,2.20
2017-09-18T01:15:37.260Z,2.24
2017-09-18T01:16:37.866Z,2.20
2017-09-18T01:17:38.510Z,2.29
2017-09-18T01:18:39.127Z,2.26
2017-09-18T01:19:39.763Z,2.28
2017-09-18T01:20:40.470Z,2.26
2017-09-18T01:21:41.077Z,2.26
2017-09-18T01:22:41.690Z,2.22
2017-09-18T01:23:42.297Z,2.24
2017-09-18T01:24:42.905Z,2.25
2017-09-18T01:25:43.612Z,2.25
2017-09-18T01:26:44.217Z,2.22
2017-09-18T01:27:44.823Z,2.26
2017-09-18T01:28:45.436Z,2.20
2017-09-18T01:29:46.041Z,2.28
2017-09-18T01:30:46.746Z,2.24
2017-09-18T01:31:47.358Z,2.22
2017-09-18T01:32:47.967Z,2.24
2017-09-18T01:33:48.566Z,2.25
2017-09-18T01:34:49.175Z,2.32
2017-09-18T01:35:49.882Z,2.31
2017-09-18T01:36:50.524Z,2.25
2017-09-18T01:37:51.163Z,2.26
2017-09-18T01:38:51.768Z,2.18
2017-09-18T01:39:52.375Z,2.22
2017-09-18T01:40:53.132Z,2.33
2017-09-18T01:41:53.738Z,2.28
2017-09-18T01:42:54.345Z,2.42
2017-09-18T01:43:54.951Z,2.36
2017-09-18T01:44:55.590Z,2.35
2017-09-18T01:45:56.300Z,2.36
2017-09-18T01:46:56.904Z,2.38
2017-09-18T01:47:57.516Z,2.43
2017-09-18T01:48:58.124Z,2.36
2017-09-18T01:49:58.732Z,2.39
2017-09-18T01:50:59.466Z,2.35
2017-09-18T01:52:00.075Z,2.33
2017-09-18T01:53:00.682Z,2.44
2017-09-18T01:54:01.288Z,2.38
2017-09-18T01:55:01.895Z,2.46
2017-09-18T01:56:02.609Z,2.38
2017-09-18T01:57:03.213Z,2.38
2017-09-18T01:58:03.820Z,2.33
2017-09-18T01:59:04.424Z,2.32
2017-09-18T02:00:05.062Z,2.32
2017-09-18T02:01:05.774Z,2.36
2017-09-18T02:02:06.379Z,2.39
2017-09-18T02:03:06.987Z,2.43
2017-09-18T02:04:07.592Z,2.46
2017-09-18T02:05:08.201Z,2.50
2017-09-18T02:06:08.907Z,2.51
2017-09-18T02:07:09.516Z,2.39
2017-09-18T02:08:10.129Z,2.47
2017-09-18T02:09:10.733Z,2.51
2017-09-18T02:10:11.340Z,2.47
2017-09-18T02:11:12.047Z,2.49
2017-09-18T02:12:12.659Z,2.51
2017-09-18T02:13:13.262Z,2.53
2017-09-18T02:14:13.866Z,2.49
2017-09-18T02:15:14.480Z,2.46
2017-09-18T02:16:15.184Z,2.47
2017-09-18T02:17:15.793Z,2.47
2017-09-18T02:18:16.398Z,2.51
2017-09-18T02:19:17.005Z,2.51
2017-09-18T02:20:17.612Z,2.46
2017-09-18T02:21:18.319Z,2.49
2017-09-18T02:22:18.928Z,2.49
2017-09-18T02:23:19.535Z,2.49
2017-09-18T02:24:20.142Z,2.53
2017-09-18T02:25:20.747Z,2.49
2017-09-18T02:26:21.487Z,2.49
2017-09-18T02:27:22.094Z,2.53
2017-09-18T02:28:22.700Z,2.54
2017-09-18T02:29:23.308Z,2.54
2017-09-18T02:30:23.920Z,2.53
2017-09-18T02:31:24.530Z,2.61
2017-09-18T02:32:25.138Z,2.56
2017-09-18T02:33:25.741Z,2.56
2017-09-18T02:34:26.447Z,2.60
2017-09-18T02:35:27.089Z,2.67
2017-09-18T02:36:27.693Z,2.61
2017-09-18T02:37:28.338Z,2.64
2017-09-18T02:38:28.942Z,2.57
2017-09-18T02:39:29.651Z,2.69
2017-09-18T02:40:30.266Z,2.60
2017-09-18T02:41:30.875Z,2.65
2017-09-18T02:42:31.503Z,2.60
2017-09-18T02:43:32.141Z,2.61
2017-09-18T02:44:32.849Z,2.68
2017-09-18T02:45:33.454Z,2.68
2017-09-18T02:46:34.067Z,2.74
2017-09-18T02:47:34.673Z,2.74
2017-09-18T02:48:35.278Z,2.71
2017-09-18T02:49:35.991Z,2.80
2017-09-18T02:50:36.629Z,2.71
2017-09-18T02:51:37.237Z,2.83
2017-09-18T02:52:37.849Z,2.74
2017-09-18T02:53:38.453Z,2.75
2017-09-18T02:54:39.162Z,2.77
2017-09-18T02:55:39.769Z,2.74
2017-09-18T02:56:40.406Z,2.74
2017-09-18T02:57:41.014Z,2.79
2017-09-18T02:58:41.651Z,2.77
2017-09-18T02:59:42.389Z,2.79
2017-09-18T03:00:43.034Z,2.80
2017-09-18T03:01:43.637Z,2.77
2017-09-18T03:02:44.243Z,2.75
2017-09-18T03:03:44.849Z,2.79
2017-09-18T03:04:45.558Z,2.69
2017-09-18T03:05:46.164Z,2.77
2017-09-18T03:06:46.776Z,2.72
2017-09-18T03:07:47.413Z,2.71
2017-09-18T03:08:48.021Z,2.75
2017-09-18T03:09:48.732Z,2.85
2017-09-18T03:10:49.338Z,2.79
2017-09-18T03:11:49.983Z,2.77
2017-09-18T03:12:50.590Z,2.72
2017-09-18T03:13:51.196Z,2.77
2017-09-18T03:14:51.903Z,2.79
2017-09-18T03:15:52.510Z,2.75
2017-09-18T03:16:53.118Z,2.71
2017-09-18T03:17:53.758Z,2.82
2017-09-18T03:18:54.365Z,2.74
2017-09-18T03:19:55.074Z,2.64
2017-09-18T03:20:55.681Z,2.74
2017-09-18T03:21:56.287Z,2.69
2017-09-18T03:22:56.893Z,2.69
2017-09-18T03:23:57.502Z,2.71
2017-09-18T03:24:58.218Z,2.69
2017-09-18T03:25:58.819Z,2.68
2017-09-18T03:26:59.458Z,2.77
2017-09-18T03:28:00.064Z,2.68
2017-09-18T03:29:00.672Z,2.65
2017-09-18T03:30:01.377Z,2.68
2017-09-18T03:31:01.985Z,2.69
2017-09-18T03:32:02.596Z,2.69
2017-09-18T03:33:03.203Z,2.68
2017-09-18T03:34:03.810Z,2.71
2017-09-18T03:35:04.544Z,2.74
2017-09-18T03:36:05.151Z,2.72
2017-09-18T03:37:05.765Z,2.67
2017-09-18T03:38:06.371Z,2.75
2017-09-18T03:39:06.978Z,2.68
2017-09-18T03:40:07.683Z,2.64
2017-09-18T03:41:08.290Z,2.64
2017-09-18T03:42:08.903Z,2.61
2017-09-18T03:43:09.508Z,2.61
2017-09-18T03:44:10.114Z,2.61
2017-09-18T03:45:10.826Z,2.57
2017-09-18T03:46:11.430Z,2.62
2017-09-18T03:47:12.039Z,2.57
2017-09-18T03:48:12.644Z,2.57
2017-09-18T03:49:13.293Z,2.60
2017-09-18T03:50:13.992Z,2.65
2017-09-18T03:51:14.602Z,2.62
2017-09-18T03:52:15.205Z,2.72
2017-09-18T03:53:15.812Z,2.60
2017-09-18T03:54:16.419Z,2.64
2017-09-18T03:55:17.126Z,2.61
2017-09-18T03:56:17.737Z,2.71
2017-09-18T03:57:18.342Z,2.71
2017-09-18T03:58:18.948Z,2.74
2017-09-18T03:59:19.587Z,2.71
2017-09-18T04:00:20.296Z,2.75
2017-09-18T04:01:20.904Z,2.82
2017-09-18T04:02:21.512Z,2.72
2017-09-18T04:03:22.119Z,2.79
2017-09-18T04:04:22.726Z,2.67
2017-09-18T04:05:23.433Z,2.72
2017-09-18T04:06:24.048Z,2.75
2017-09-18T04:07:24.692Z,2.80
2017-09-18T04:08:25.302Z,2.74
2017-09-18T04:09:25.907Z,2.75
2017-09-18T04:10:26.645Z,2.79
2017-09-18T04:11:27.251Z,2.89
2017-09-18T04:12:27.890Z,2.85
2017-09-18T04:13:28.497Z,2.93
2017-09-18T04:14:29.106Z,2.97
2017-09-18T04:15:29.820Z,2.89
2017-09-18T04:16:30.424Z,2.90
2017-09-18T04:17:31.031Z,2.89
2017-09-18T04:18:31.639Z,2.87
2017-09-18T04:19:32.245Z,2.82
2017-09-18T04:20:32.951Z,2.87
2017-09-18T04:21:33.591Z,2.86
2017-09-18T04:22:34.199Z,2.85
2017-09-18T04:23:34.805Z,2.89
2017-09-18T04:24:35.412Z,2.83
2017-09-18T04:25:36.120Z,2.79
2017-09-18T04:26:36.728Z,2.71
2017-09-18T04:27:37.336Z,2.79
2017-09-18T04:28:37.945Z,2.82
2017-09-18T04:29:38.588Z,2.74
2017-09-18T04:30:39.293Z,2.74
2017-09-18T04:31:39.900Z,2.74
2017-09-18T04:32:40.511Z,2.77
2017-09-18T04:33:41.118Z,2.72
2017-09-18T04:34:41.725Z,2.65
2017-09-18T04:35:42.436Z,2.61
2017-09-18T04:36:43.040Z,2.60
2017-09-18T04:37:43.646Z,2.53
2017-09-18T04:38:44.252Z,2.57
2017-09-18T04:39:44.862Z,2.56
2017-09-18T04:40:45.570Z,2.51
2017-09-18T04:41:46.208Z,2.51
2017-09-18T04:42:46.814Z,2.53
2017-09-18T04:43:47.422Z,2.51
2017-09-18T04:44:48.027Z,2.61
2017-09-18T04:45:48.733Z,2.62
2017-09-18T04:46:49.340Z,2.54
2017-09-18T04:47:49.946Z,2.50
2017-09-18T04:48:50.584Z,2.50
2017-09-18T04:49:51.193Z,2.57
2017-09-18T04:50:51.904Z,2.43
2017-09-18T04:51:52.508Z,2.49
2017-09-18T04:52:53.116Z,2.47
2017-09-18T04:53:53.724Z,2.42
2017-09-18T04:54:54.335Z,2.39
2017-09-18T04:55:55.041Z,2.39
2017-09-18T04:56:55.650Z,2.33
2017-09-18T04:57:56.256Z,2.35
2017-09-18T04:58:56.866Z,2.36
2017-09-18T04:59:57.476Z,2.33
2017-09-18T05:00:58.178Z,2.33
2017-09-18T05:01:58.784Z,2.32
2017-09-18T05:02:59.397Z,2.39
2017-09-18T05:04:00.004Z,2.32
2017-09-18T05:05:00.642Z,2.31
2017-09-18T05:06:01.350Z,2.33
2017-09-18T05:07:01.962Z,2.26
2017-09-18T05:08:02.565Z,2.33
2017-09-18T05:09:03.172Z,2.18
2017-09-18T05:10:03.785Z,2.20
2017-09-18T05:11:04.491Z,2.20
2017-09-18T05:12:05.097Z,2.24
2017-09-18T05:13:05.703Z,2.28
2017-09-18T05:14:06.309Z,2.22
2017-09-18T05:15:06.922Z,2.26
2017-09-18T05:16:07.626Z,2.24
2017-09-18T05:17:08.233Z,2.24
2017-09-18T05:18:08.840Z,2.18
2017-09-18T05:19:09.446Z,2.22
2017-09-18T05:20:10.053Z,2.26
2017-09-18T05:21:10.796Z,2.31
2017-09-18T05:22:11.407Z,2.20
2017-09-18T05:23:12.021Z,2.28
2017-09-18T05:24:12.622Z,2.31
2017-09-18T05:25:13.234Z,2.36
2017-09-18T05:26:13.946Z,2.33
2017-09-18T05:27:14.550Z,2.31
2017-09-18T05:28:15.163Z,2.29
2017-09-18T05:29:15.767Z,2.39
2017-09-18T05:30:16.376Z,2.35
2017-09-18T05:31:17.084Z,2.39
2017-09-18T05:32:17.699Z,2.31
2017-09-18T05:33:18.303Z,2.38
2017-09-18T05:34:18.911Z,2.33
2017-09-18T05:35:19.521Z,2.35
2017-09-18T05:36:20.227Z,2.38
2017-09-18T05:37:20.841Z,2.44
2017-09-18T05:38:21.447Z,2.39
2017-09-18T05:39:22.061Z,2.36
2017-09-18T05:40:22.667Z,2.35
2017-09-18T05:41:23.372Z,2.33
2017-09-18T05:42:23.984Z,2.36
2017-09-18T05:43:24.591Z,2.36
2017-09-18T05:44:25.200Z,2.43
2017-09-18T05:45:25.839Z,2.44
2017-09-18T05:46:26.549Z,2.46
2017-09-18T05:47:27.155Z,2.49
2017-09-18T05:48:27.768Z,2.57
2017-09-18T05:49:28.374Z,2.56
2017-09-18T05:50:28.980Z,2.53
2017-09-18T05:51:29.687Z,2.53
2017-09-18T05:52:30.295Z,2.50
2017-09-18T05:53:30.902Z,2.39
2017-09-18T05:54:31.518Z,2.33
2017-09-18T05:55:32.163Z,2.28
2017-09-18T05:56:32.866Z,2.25
2017-09-18T05:57:33.483Z,2.35
2017-09-18T05:58:34.088Z,2.38
2017-09-18T05:59:34.723Z,2.39
2017-09-18T06:00:35.364Z,2.42
2017-09-18T06:01:36.070Z,2.35
2017-09-18T06:02:36.679Z,2.38
2017-09-18T06:03:37.286Z,2.39
2017-09-18T06:04:37.894Z,2.42
2017-09-18T06:05:38.501Z,2.42
2017-09-18T06:06:39.214Z,2.46
2017-09-18T06:07:39.823Z,2.49
2017-09-18T06:08:40.460Z,2.49
2017-09-18T06:09:41.066Z,2.60
2017-09-18T06:10:41.680Z,2.54
2017-09-18T06:11:42.387Z,2.57
2017-09-18T06:12:43.001Z,2.57
2017-09-18T06:13:43.604Z,2.61
2017-09-18T06:14:44.212Z,2.64
2017-09-18T06:15:44.826Z,2.74
2017-09-18T06:16:45.532Z,2.69
2017-09-18T06:17:46.140Z,2.72
2017-09-18T06:18:46.781Z,2.68
2017-09-18T06:19:47.388Z,2.72
2017-09-18T06:20:48.027Z,2.57
2017-09-18T06:21:48.734Z,2.68
2017-09-18T06:22:49.374Z,2.74
2017-09-18T06:23:49.986Z,2.83
2017-09-18T06:24:50.597Z,2.71
2017-09-18T06:25:51.240Z,2.75
2017-09-18T06:26:51.945Z,2.79
2017-09-18T06:27:52.559Z,2.75
2017-09-18T06:28:53.163Z,2.72
2017-09-18T06:29:53.803Z,2.72
2017-09-18T06:30:54.410Z,2.75
2017-09-18T06:31:55.117Z,2.75
2017-09-18T06:32:55.758Z,2.77
2017-09-18T06:33:56.373Z,2.83
2017-09-18T06:34:56.978Z,2.85
2017-09-18T06:35:57.585Z,2.85
2017-09-18T06:36:58.298Z,2.86
2017-09-18T06:37:58.904Z,2.79
2017-09-18T06:38:59.511Z,2.79
2017-09-18T06:40:00.151Z,2.82
2017-09-18T06:41:00.730Z,2.82
2017-09-18T06:42:01.437Z,2.85
2017-09-18T06:43:02.050Z,2.89
2017-09-18T06:44:02.658Z,2.98
2017-09-18T06:45:03.270Z,2.95
2017-09-18T06:46:03.885Z,3.07
2017-09-18T06:47:04.598Z,3.14
2017-09-18T06:48:05.204Z,3.16
2017-09-18T06:49:05.819Z,3.21
2017-09-18T06:50:06.429Z,3.32
2017-09-18T06:51:07.038Z,3.34
2017-09-18T06:52:07.753Z,3.41
2017-09-18T06:53:08.360Z,3.36
2017-09-18T06:54:08.971Z,3.40
2017-09-18T06:55:09.580Z,3.47
2017-09-18T06:56:10.191Z,3.50
2017-09-18T06:57:10.901Z,3.42
2017-09-18T06:58:11.513Z,3.55
2017-09-18T06:59:12.123Z,3.44
2017-09-18T07:00:12.734Z,3.48
2017-09-18T07:01:13.380Z,3.53
2017-09-18T07:02:14.090Z,3.55
2017-09-18T07:03:14.701Z,3.45
2017-09-18T07:04:15.315Z,3.70
2017-09-18T07:05:15.923Z,3.62
2017-09-18T07:06:16.538Z,3.60
2017-09-18T07:07:17.249Z,3.60
2017-09-18T07:08:17.859Z,3.63
2017-09-18T07:09:18.474Z,3.76
2017-09-18T07:10:19.089Z,3.80
2017-09-18T07:11:19.696Z,3.83
2017-09-18T07:12:20.407Z,3.81
2017-09-18T07:13:21.049Z,3.91
2017-09-18T07:14:21.662Z,3.91
2017-09-18T07:15:22.275Z,3.91
2017-09-18T07:16:22.889Z,3.83
2017-09-18T07:17:23.595Z,3.91
2017-09-18T07:18:24.208Z,3.87
2017-09-18T07:19:24.824Z,3.96
2017-09-18T07:20:25.437Z,3.95
2017-09-18T07:21:26.087Z,3.95
2017-09-18T07:22:26.825Z,3.94
2017-09-18T07:23:27.444Z,3.95
2017-09-18T07:24:28.052Z,3.98
2017-09-18T07:25:28.661Z,4.04
2017-09-18T07:26:29.271Z,4.08
2017-09-18T07:27:29.986Z,4.12
2017-09-18T07:28:30.627Z,4.16
2017-09-18T07:29:31.239Z,4.10
2017-09-18T07:30:31.848Z,4.22
2017-09-18T07:31:32.459Z,4.32
2017-09-18T07:32:33.171Z,4.31
2017-09-18T07:33:33.782Z,4.32
2017-09-18T07:34:34.398Z,4.31
2017-09-18T07:35:35.007Z,4.32
2017-09-18T07:36:35.621Z,4.26
2017-09-18T07:37:36.231Z,4.08
2017-09-18T07:38:36.841Z,4.05
2017-09-18T07:39:37.451Z,4.02
2017-09-18T07:40:38.069Z,4.06
2017-09-18T07:41:38.778Z,4.02
2017-09-18T07:42:39.389Z,4.12
2017-09-18T07:43:40.004Z,4.10
2017-09-18T07:44:40.613Z,4.26
2017-09-18T07:45:41.224Z,4.26
2017-09-18T07:46:41.941Z,4.20
2017-09-18T07:47:42.556Z,4.17
2017-09-18T07:48:43.163Z,4.32
2017-09-18T07:49:43.780Z,4.37
2017-09-18T07:50:44.387Z,4.42
2017-09-18T07:51:45.098Z,4.53
2017-09-18T07:52:45.709Z,4.55
2017-09-18T07:53:46.324Z,4.62
2017-09-18T07:54:46.932Z,4.56
2017-09-18T07:55:47.544Z,4.44
2017-09-18T07:56:48.260Z,4.38
2017-09-18T07:57:48.872Z,4.22
2017-09-18T07:58:49.480Z,4.23
2017-09-18T07:59:50.093Z,4.10
2017-09-18T08:00:50.708Z,4.10
2017-09-18T08:01:51.417Z,4.13
2017-09-18T08:02:52.030Z,4.13
2017-09-18T08:03:52.639Z,4.23
2017-09-18T08:04:53.258Z,4.30
2017-09-18T08:05:53.866Z,4.19
2017-09-18T08:06:54.577Z,4.31
2017-09-18T08:07:55.188Z,4.34
2017-09-18T08:08:55.799Z,4.40
2017-09-18T08:09:56.442Z,4.38
2017-09-18T08:10:57.057Z,4.52
2017-09-18T08:11:57.767Z,4.59
2017-09-18T08:12:58.381Z,4.66
2017-09-18T08:13:59.021Z,4.75
2017-09-18T08:14:59.638Z,4.84
2017-09-18T08:16:00.247Z,5.05
2017-09-18T08:17:00.959Z,5.11
2017-09-18T08:18:01.568Z,5.15
2017-09-18T08:19:02.181Z,5.10
2017-09-18T08:20:02.793Z,5.26
2017-09-18T08:21:03.410Z,5.32
2017-09-18T08:22:04.119Z,5.39
2017-09-18T08:23:04.740Z,5.44
2017-09-18T08:24:05.356Z,5.39
2017-09-18T08:25:05.964Z,5.20
2017-09-18T08:26:06.577Z,5.17
2017-09-18T08:27:07.284Z,5.14
2017-09-18T08:28:07.896Z,5.28
2017-09-18T08:29:08.516Z,5.25
2017-09-18T08:30:09.118Z,5.33
2017-09-18T08:31:09.730Z,5.30
2017-09-18T08:32:10.449Z,5.33
2017-09-18T08:33:11.058Z,5.35
2017-09-18T08:34:11.700Z,5.38
2017-09-18T08:35:12.314Z,5.47
2017-09-18T08:36:12.923Z,5.48
2017-09-18T08:37:13.636Z,5.48
2017-09-18T08:38:14.246Z,5.57
2017-09-18T08:39:14.860Z,5.62
2017-09-18T08:40:15.475Z,5.66
2017-09-18T08:41:16.120Z,5.64
2017-09-18T08:42:16.831Z,5.69
2017-09-18T08:43:17.444Z,5.61
2017-09-18T08:44:18.059Z,5.69
2017-09-18T08:45:18.710Z,5.59
2017-09-18T08:46:19.318Z,5.57
2017-09-18T08:47:20.041Z,5.62
2017-09-18T08:48:20.644Z,5.61
2017-09-18T08:49:21.262Z,5.82
2017-09-18T08:50:21.904Z,5.79
2017-09-18T08:51:22.516Z,5.80
2017-09-18T08:52:23.258Z,5.83
2017-09-18T08:53:23.876Z,5.98
2017-09-18T08:54:24.519Z,6.05
2017-09-18T08:55:25.137Z,6.08
2017-09-18T08:56:25.745Z,5.97
2017-09-18T08:57:26.457Z,5.90
2017-09-18T08:58:27.076Z,5.80
2017-09-18T08:59:27.688Z,5.80
2017-09-18T09:00:28.303Z,5.72
2017-09-18T09:01:28.911Z,5.64
2017-09-18T09:02:29.627Z,5.62
2017-09-18T09:03:30.234Z,5.59
2017-09-18T09:04:30.852Z,5.65
2017-09-18T09:05:31.466Z,5.56
2017-09-18T09:06:32.078Z,5.54
2017-09-18T09:07:32.819Z,5.54
2017-09-18T09:08:33.433Z,5.54
2017-09-18T09:09:34.078Z,5.50
2017-09-18T09:10:34.686Z,5.44
2017-09-18T09:11:35.297Z,5.47
2017-09-18T09:12:36.015Z,5.46
2017-09-18T09:13:36.625Z,5.44
2017-09-18T09:14:37.238Z,5.47
2017-09-18T09:15:37.847Z,5.64
2017-09-18T09:16:38.461Z,5.65
2017-09-18T09:17:39.173Z,5.79
2017-09-18T09:18:39.785Z,5.91
2017-09-18T09:19:40.404Z,6.04
2017-09-18T09:20:41.013Z,6.17
2017-09-18T09:21:41.625Z,6.11
2017-09-18T09:22:42.336Z,6.16
2017-09-18T09:23:42.950Z,6.14
2017-09-18T09:24:43.561Z,6.11
2017-09-18T09:25:44.173Z,6.17
2017-09-18T09:26:44.790Z,6.36
2017-09-18T09:27:45.541Z,6.39
2017-09-18T09:28:46.147Z,6.48
2017-09-18T09:29:46.761Z,6.64
2017-09-18T09:30:47.403Z,6.59
2017-09-18T09:31:48.026Z,6.62
2017-09-18T09:32:48.736Z,6.51
2017-09-18T09:33:49.347Z,6.45
2017-09-18T09:34:49.960Z,6.38
2017-09-18T09:35:50.608Z,6.27
2017-09-18T09:36:51.247Z,6.22
2017-09-18T09:37:51.959Z,6.28
2017-09-18T09:38:52.573Z,6.49
2017-09-18T09:39:53.190Z,6.51
2017-09-18T09:40:53.801Z,6.56
2017-09-18T09:41:54.419Z,6.52
2017-09-18T09:42:55.035Z,6.70
2017-09-18T09:43:55.651Z,6.64
2017-09-18T09:44:56.267Z,6.66
2017-09-18T09:45:56.882Z,6.66
2017-09-18T09:46:57.492Z,6.75
2017-09-18T09:47:58.211Z,6.77
2017-09-18T09:48:58.827Z,6.87
2017-09-18T09:49:59.439Z,6.92
2017-09-18T09:51:00.052Z,6.93
2017-09-18T09:52:00.665Z,7.11
2017-09-18T09:53:01.377Z,7.14
2017-09-18T09:54:01.997Z,7.28
2017-09-18T09:55:02.609Z,7.42
2017-09-18T09:56:03.223Z,7.61
2017-09-18T09:57:03.837Z,7.72
2017-09-18T09:58:04.557Z,7.82
2017-09-18T09:59:05.166Z,8.06
2017-09-18T10:00:05.779Z,8.10
2017-09-18T10:01:06.424Z,8.30
2017-09-18T10:02:07.038Z,8.51
2017-09-18T10:03:07.752Z,8.51
2017-09-18T10:04:08.371Z,8.49
2017-09-18T10:05:08.983Z,8.41
2017-09-18T10:06:09.604Z,8.37
2017-09-18T10:07:10.214Z,8.37
2017-09-18T10:08:10.959Z,8.49
2017-09-18T10:09:11.572Z,8.56
2017-09-18T10:10:12.194Z,8.64
2017-09-18T10:11:12.813Z,8.67
2017-09-18T10:12:13.428Z,8.78
2017-09-18T10:13:14.149Z,8.73
2017-09-18T10:14:14.792Z,8.71
2017-09-18T10:15:15.439Z,8.73
2017-09-18T10:16:16.053Z,8.73
2017-09-18T10:17:16.672Z,8.71
2017-09-18T10:18:17.384Z,8.84
2017-09-18T10:19:18.000Z,8.60
2017-09-18T10:20:18.619Z,8.63
2017-09-18T10:21:19.263Z,8.56
2017-09-18T10:22:19.881Z,8.38
2017-09-18T10:23:20.629Z,8.28
2017-09-18T10:24:21.240Z,8.10
2017-09-18T10:25:21.856Z,8.12
2017-09-18T10:26:22.469Z,8.36
2017-09-18T10:27:23.083Z,8.48
2017-09-18T10:28:23.799Z,8.60
2017-09-18T10:29:24.419Z,8.71
2017-09-18T10:30:25.030Z,8.64
2017-09-18T10:31:25.651Z,8.55
2017-09-18T10:32:26.269Z,8.48
2017-09-18T10:33:26.982Z,8.56
2017-09-18T10:34:27.597Z,8.73
2017-09-18T10:35:28.212Z,8.79
2017-09-18T10:36:28.828Z,8.87
2017-09-18T10:37:29.443Z,8.92
2017-09-18T10:38:30.163Z,9.08
2017-09-18T10:39:30.777Z,9.31
2017-09-18T10:40:31.424Z,9.47
2017-09-18T10:41:32.042Z,9.64
2017-09-18T10:42:32.657Z,9.80
2017-09-18T10:43:33.403Z,9.83
2017-09-18T10:44:34.026Z,10.22
2017-09-18T10:45:34.641Z,10.33
2017-09-18T10:46:35.258Z,10.25
2017-09-18T10:47:35.873Z,10.26
2017-09-18T10:48:36.626Z,10.17
2017-09-18T10:49:37.206Z,10.12
2017-09-18T10:50:37.822Z,10.10
2017-09-18T10:51:38.437Z,9.82
2017-09-18T10:52:39.057Z,9.73
2017-09-18T10:53:39.768Z,9.46
2017-09-18T10:54:40.383Z,9.11
2017-09-18T10:55:41.028Z,8.97
2017-09-18T10:56:41.643Z,8.78
2017-09-18T10:57:42.258Z,8.70
2017-09-18T10:58:42.978Z,8.74
2017-09-18T10:59:43.589Z,8.79
2017-09-18T11:00:44.204Z,8.92
2017-09-18T11:01:44.825Z,9.16
2017-09-18T11:02:45.438Z,9.39
2017-09-18T11:03:46.155Z,9.74
2017-09-18T11:04:46.770Z,9.83
2017-09-18T11:05:47.394Z,9.83
2017-09-18T11:06:48.042Z,9.98
2017-09-18T11:07:48.664Z,10.05
2017-09-18T11:08:49.377Z,10.05
2017-09-18T11:09:49.998Z,10.19
2017-09-18T11:10:50.614Z,10.26
2017-09-18T11:11:51.235Z,10.30
2017-09-18T11:12:51.884Z,10.05
2017-09-18T11:13:52.606Z,10.12
2017-09-18T11:14:53.222Z,10.10
2017-09-18T11:15:53.838Z,10.20
2017-09-18T11:16:54.456Z,10.23
2017-09-18T11:17:55.079Z,10.34
2017-09-18T11:18:55.794Z,10.44
2017-09-18T11:19:56.411Z,10.60
2017-09-18T11:20:57.035Z,10.64
2017-09-18T11:21:57.649Z,10.67
2017-09-18T11:22:58.270Z,10.69
2017-09-18T11:23:58.989Z,10.84
2017-09-18T11:24:59.606Z,10.92
2017-09-18T11:26:00.225Z,10.87
2017-09-18T11:27:00.844Z,10.90
2017-09-18T11:28:01.471Z,10.84
2017-09-18T11:29:02.181Z,10.69
2017-09-18T11:30:02.804Z,10.84
2017-09-18T11:31:03.451Z,10.86
2017-09-18T11:32:04.068Z,10.87
2017-09-18T11:33:04.693Z,10.78
2017-09-18T11:34:05.409Z,10.87
2017-09-18T11:35:06.026Z,10.97
2017-09-18T11:36:06.644Z,10.96
2017-09-18T11:37:07.266Z,10.79
2017-09-18T11:38:07.881Z,10.74
2017-09-18T11:39:08.598Z,10.81
2017-09-18T11:40:09.217Z,11.04
2017-09-18T11:41:09.837Z,11.02
2017-09-18T11:42:10.451Z,11.02
2017-09-18T11:43:11.071Z,10.92
2017-09-18T11:44:11.788Z,10.82
2017-09-18T11:45:12.444Z,10.90
2017-09-18T11:46:13.100Z,11.07
2017-09-18T11:47:13.716Z,11.27
2017-09-18T11:48:14.337Z,11.47
2017-09-18T11:49:15.090Z,11.65
2017-09-18T11:50:15.706Z,11.66
2017-09-18T11:51:16.357Z,11.50
2017-09-18T11:52:16.975Z,11.26
2017-09-18T11:53:17.594Z,11.12
2017-09-18T11:54:18.311Z,11.23
2017-09-18T11:55:18.928Z,11.05
2017-09-18T11:56:19.563Z,11.04
2017-09-18T11:57:20.184Z,11.10
2017-09-18T11:58:20.801Z,11.18
2017-09-18T11:59:21.549Z,11.36
2017-09-18T12:00:22.166Z,11.51
2017-09-18T12:01:22.787Z,11.59
2017-09-18T12:02:23.410Z,11.73
2017-09-18T12:03:24.025Z,11.91
2017-09-18T12:04:24.745Z,12.10
2017-09-18T12:05:25.364Z,12.22
2017-09-18T12:06:25.981Z,12.31
2017-09-18T12:07:26.600Z,12.28
2017-09-18T12:08:27.219Z,12.28
2017-09-18T12:09:27.943Z,12.13
2017-09-18T12:10:28.560Z,12.06
2017-09-18T12:11:29.178Z,12.07
2017-09-18T12:12:29.797Z,12.29
2017-09-18T12:13:30.415Z,12.35
2017-09-18T12:14:31.135Z,12.22
2017-09-18T12:15:31.788Z,11.95
2017-09-18T12:16:32.370Z,11.57
2017-09-18T12:17:32.994Z,11.26
2017-09-18T12:18:33.612Z,11.05
2017-09-18T12:19:34.330Z,11.04
2017-09-18T12:20:34.953Z,11.10
2017-09-18T12:21:35.569Z,11.27
2017-09-18T12:22:36.186Z,11.45
2017-09-18T12:23:36.805Z,11.77
2017-09-18T12:24:37.571Z,11.90
2017-09-18T12:25:38.193Z,11.83
2017-09-18T12:26:38.815Z,11.87
2017-09-18T12:27:39.436Z,11.95
2017-09-18T12:28:40.051Z,11.99
2017-09-18T12:29:40.767Z,12.10
2017-09-18T12:30:41.418Z,11.90
2017-09-18T12:31:42.038Z,11.80
2017-09-18T12:32:42.693Z,11.66
2017-09-18T12:33:43.307Z,11.55
2017-09-18T12:34:44.030Z,11.57
2017-09-18T12:35:44.683Z,11.59
2017-09-18T12:36:45.305Z,11.57
2017-09-18T12:37:45.921Z,11.50
2017-09-18T12:38:46.540Z,11.51
2017-09-18T12:39:47.285Z,11.43
2017-09-18T12:40:47.880Z,11.29
2017-09-18T12:41:48.499Z,11.15
2017-09-18T12:42:49.117Z,11.14
2017-09-18T12:43:49.735Z,11.23
2017-09-18T12:44:50.453Z,11.35
2017-09-18T12:45:51.072Z,11.37
2017-09-18T12:46:51.695Z,11.26
2017-09-18T12:47:52.312Z,11.19
2017-09-18T12:48:52.935Z,11.30
2017-09-18T12:49:53.651Z,11.35
2017-09-18T12:50:54.270Z,11.45
2017-09-18T12:51:54.894Z,11.36
2017-09-18T12:52:55.513Z,11.27
2017-09-18T12:53:56.162Z,11.33
2017-09-18T12:54:56.920Z,11.40
2017-09-18T12:55:57.535Z,11.57
2017-09-18T12:56:58.153Z,11.59
2017-09-18T12:57:58.769Z,11.69
2017-09-18T12:58:59.390Z,11.60
2017-09-18T13:00:00.110Z,11.68
2017-09-18T13:01:00.729Z,11.78
2017-09-18T13:02:01.349Z,11.83
2017-09-18T13:03:01.968Z,11.94
2017-09-18T13:04:02.587Z,12.07
2017-09-18T13:05:03.314Z,12.02
2017-09-18T13:06:03.931Z,12.13
2017-09-18T13:07:04.547Z,11.99
2017-09-18T13:08:05.165Z,12.00
2017-09-18T13:09:05.784Z,11.91
2017-09-18T13:10:06.507Z,11.87
2017-09-18T13:11:07.123Z,12.00
2017-09-18T13:12:07.746Z,11.99
2017-09-18T13:13:08.361Z,11.48
2017-09-18T13:14:09.009Z,11.14
2017-09-18T13:15:09.726Z,10.69
2017-09-18T13:16:10.344Z,10.54
2017-09-18T13:17:10.961Z,10.53
2017-09-18T13:18:11.578Z,10.42
2017-09-18T13:19:12.201Z,10.20
2017-09-18T13:20:12.915Z,10.09
2017-09-18T13:21:13.532Z,10.04
2017-09-18T13:22:14.154Z,9.95